Hauptseite
METAR-TAF:

METAR-TAF

Flughäfen :

Flughafen Rostock-Laage

Rostock, Deutschland

Breite: 53-55N, Länge: 012-17E, Höhe: 40 m

Beobachtung

Neuester Wetterbericht von vor 17 Minuten, um 09:20 UTC
Wind 9 kt aus West/Nordwest
Temperatur 16°C
Luftfeuchtigkeit 72%
Luftdruck 1022 hPa
Sichtweite 10 km oder mehr
Aufgelockert bewölkt in der Höhe von 2200 ft
Durchbrochene Bewölkung in der Höhe von 22000 ft

METAR: ETNL 280920Z 30009KT 9999 SCT022 BKN220 16/11 Q1022 BLU+

Zeit: 11:37 (09:37 UTC)

Prognose

Neuester Wetterbericht von vor 2 Stunden und 24 Minuten, um 07:13 UTC
Gültige Prognose vom 28 um 08 UTC bis 28 um 17 UTC
Wind 10 kt aus West/Nordwest
Sichtweite 10 km oder mehr
Leicht bewölkt in der Höhe von 2500 ft
Aufgelockert bewölkt in der Höhe von 22000 ft

TAF: ETNL 280713Z 2808/2817 29010KT 9999 NSW FEW025 SCT220 BY ETGL

Wetterbeobachtungen und Prognosen von mehr als 4000 Flughäfen (METAR und TAF Bericht).

Die verfügbaren Stationen werden durch gelbe und rote Markierungen auf der Karte dargestellt.

Führen Sie die Maus auf sie, um den Namen der Station zu sehen.

Darauf klicken, um die Beobachtung von Wetterbeobachtungen und Prognosen zu sehen.

Um die Karte zu ändern : klicken Sie auf den grünen Tasten mit einem schwarzen Kreuz Zum Vergrößern, auf den grünen Button mit einem Gedankenstrich zu verkleinern, oder auf die grünen Pfeile für benachbarte Karten.


METAR-TAF: